createdAt,value
2023-03-09T00:01:29.060Z,59.47
2023-03-09T00:03:33.379Z,62.83
2023-03-09T00:05:37.778Z,55.28
2023-03-09T00:07:42.197Z,65.03
2023-03-09T00:09:46.761Z,61.95
2023-03-09T00:11:48.843Z,53.15
2023-03-09T00:13:53.755Z,61.10
2023-03-09T00:15:55.337Z,62.90
2023-03-09T00:20:18.770Z,67.45
2023-03-09T00:22:20.385Z,56.00
2023-03-09T00:24:27.526Z,55.70
2023-03-09T00:26:32.318Z,57.88
2023-03-09T00:28:36.415Z,51.13
2023-03-09T00:30:40.880Z,52.78
2023-03-09T00:32:42.446Z,60.50
2023-03-09T00:34:46.509Z,61.15
2023-03-09T00:36:48.068Z,49.45
2023-03-09T00:38:53.383Z,57.42
2023-03-09T00:40:57.792Z,54.38
2023-03-09T00:42:59.205Z,59.15
2023-03-09T00:45:03.485Z,55.67
2023-03-09T00:47:05.197Z,62.35
2023-03-09T00:49:07.390Z,55.83
2023-03-09T00:51:27.981Z,62.45
2023-03-09T00:53:32.148Z,57.25
2023-03-09T00:55:36.621Z,55.35
2023-03-09T00:57:42.503Z,56.42
2023-03-09T00:59:45.615Z,53.28
2023-03-09T01:01:47.243Z,50.20
2023-03-09T01:03:54.347Z,57.97
2023-03-09T01:06:00.209Z,58.65
2023-03-09T01:08:01.815Z,54.40
2023-03-09T01:10:04.073Z,63.10
2023-03-09T01:12:05.863Z,53.60
2023-03-09T01:14:10.317Z,61.53
2023-03-09T01:16:15.078Z,54.38
2023-03-09T01:18:19.727Z,51.10
2023-03-09T01:20:24.236Z,55.75
2023-03-09T01:24:32.589Z,50.55
2023-03-09T01:26:54.121Z,53.05
2023-03-09T01:28:58.501Z,56.13
2023-03-09T01:31:18.755Z,59.55
2023-03-09T01:33:20.286Z,55.83
2023-03-09T01:35:21.908Z,57.10
2023-03-09T01:39:27.245Z,48.13
2023-03-09T01:41:31.589Z,50.75
2023-03-09T01:43:40.693Z,60.40
2023-03-09T01:45:47.860Z,53.20
2023-03-09T01:47:50.067Z,54.65
2023-03-09T01:49:57.482Z,56.45
2023-03-09T01:52:06.887Z,60.55
2023-03-09T01:54:10.125Z,51.22
2023-03-09T01:56:15.559Z,55.92
2023-03-09T01:58:22.103Z,58.00
2023-03-09T02:00:27.244Z,63.38
2023-03-09T02:02:29.905Z,65.90
2023-03-09T02:04:40.767Z,55.50
2023-03-09T02:06:42.217Z,59.40
2023-03-09T02:08:54.077Z,55.58
2023-03-09T02:10:56.981Z,63.95
2023-03-09T02:13:01.999Z,63.88
2023-03-09T02:15:06.755Z,57.40
2023-03-09T02:17:11.835Z,62.38
2023-03-09T02:19:22.373Z,58.40
2023-03-09T02:21:41.195Z,63.65
2023-03-09T02:23:52.062Z,69.88
2023-03-09T02:26:07.072Z,59.03
2023-03-09T02:28:17.522Z,76.35
2023-03-09T02:30:19.721Z,72.43
2023-03-09T02:32:23.977Z,81.97
2023-03-09T02:34:28.829Z,81.25
2023-03-09T02:36:30.628Z,80.30
2023-03-09T02:38:32.199Z,81.65
2023-03-09T02:40:35.520Z,92.07
2023-03-09T02:42:40.417Z,83.97
2023-03-09T02:44:49.055Z,84.30
2023-03-09T02:46:56.585Z,79.10
2023-03-09T02:49:04.183Z,85.13
2023-03-09T02:51:07.232Z,88.70
2023-03-09T02:53:08.900Z,89.13
2023-03-09T02:57:17.493Z,110.60
2023-03-09T02:59:19.205Z,95.93
2023-03-09T03:01:23.496Z,90.35
2023-03-09T03:03:43.898Z,89.07
2023-03-09T03:05:49.042Z,95.03
2023-03-09T03:07:50.574Z,81.78
2023-03-09T03:09:55.116Z,84.70
2023-03-09T03:11:59.623Z,82.90
2023-03-09T03:14:19.776Z,85.80
2023-03-09T03:16:21.374Z,91.75
2023-03-09T03:18:25.825Z,92.57
2023-03-09T03:20:27.363Z,84.28
2023-03-09T03:22:28.766Z,85.03
2023-03-09T03:24:30.462Z,83.90
2023-03-09T03:26:32.199Z,90.93
2023-03-09T03:28:36.489Z,88.10
2023-03-09T03:30:38.017Z,89.22
2023-03-09T03:32:45.519Z,89.20
2023-03-09T03:35:05.878Z,86.30
2023-03-09T03:37:07.473Z,87.28
2023-03-09T03:41:16.046Z,80.28
2023-03-09T03:45:24.424Z,80.63
2023-03-09T03:47:25.870Z,86.72
2023-03-09T03:49:27.610Z,84.63
2023-03-09T03:51:29.132Z,88.68
2023-03-09T03:53:33.442Z,89.47
2023-03-09T03:55:37.952Z,80.43
2023-03-09T03:57:39.480Z,87.72
2023-03-09T04:01:48.184Z,78.47
2023-03-09T04:03:49.757Z,79.68
2023-03-09T04:05:54.187Z,86.78
2023-03-09T04:10:02.510Z,75.05
2023-03-09T04:12:07.007Z,79.15
2023-03-09T04:14:08.491Z,74.20
2023-03-09T04:16:10.009Z,88.38
2023-03-09T04:18:15.054Z,84.22
2023-03-09T04:20:19.162Z,84.07
2023-03-09T04:22:20.761Z,80.75
2023-03-09T04:24:41.122Z,95.38
2023-03-09T04:28:46.618Z,73.57
2023-03-09T04:30:48.230Z,86.25
2023-03-09T04:32:49.889Z,82.38
2023-03-09T04:34:51.463Z,80.10
2023-03-09T04:36:53.013Z,82.63
2023-03-09T04:38:54.549Z,81.45
2023-03-09T04:40:56.024Z,81.57
2023-03-09T04:42:57.541Z,83.07
2023-03-09T04:47:07.287Z,90.73
2023-03-09T04:49:11.376Z,87.93
2023-03-09T04:51:12.880Z,99.70
2023-03-09T04:53:32.863Z,96.63
2023-03-09T04:55:52.807Z,94.82
2023-03-09T04:57:56.993Z,105.07
2023-03-09T04:59:58.454Z,97.30
2023-03-09T05:02:18.702Z,88.75
2023-03-09T05:04:23.069Z,88.15
2023-03-09T05:06:30.564Z,96.22
2023-03-09T05:08:35.132Z,96.13
2023-03-09T05:10:36.810Z,97.82
2023-03-09T05:12:38.352Z,98.63
2023-03-09T05:14:42.669Z,101.90
2023-03-09T05:16:49.530Z,92.10
2023-03-09T05:18:51.320Z,103.85
2023-03-09T05:21:11.573Z,100.53
2023-03-09T05:23:13.601Z,93.28
2023-03-09T05:25:15.052Z,94.50
2023-03-09T05:27:16.614Z,95.38
2023-03-09T05:29:26.325Z,115.93
2023-03-09T05:31:55.062Z,103.07
2023-03-09T05:34:15.217Z,104.15
2023-03-09T05:36:34.310Z,105.75
2023-03-09T05:38:57.883Z,93.25
2023-03-09T05:41:17.783Z,115.80
2023-03-09T05:43:38.643Z,95.50
2023-03-09T05:46:04.268Z,100.78
2023-03-09T05:48:22.320Z,101.73
2023-03-09T05:50:42.047Z,87.80
2023-03-09T05:53:00.735Z,94.10
2023-03-09T05:55:20.326Z,93.78
2023-03-09T05:57:36.225Z,104.65
2023-03-09T05:59:51.466Z,97.75
2023-03-09T06:02:11.224Z,95.53
2023-03-09T06:04:24.728Z,97.90
2023-03-09T06:06:31.313Z,157.95
2023-03-09T06:08:35.481Z,135.80
2023-03-09T06:10:37.379Z,98.20
2023-03-09T06:12:41.741Z,109.28
2023-03-09T06:14:43.264Z,94.45
2023-03-09T06:16:44.782Z,106.18
2023-03-09T06:18:49.388Z,89.22
2023-03-09T06:20:53.425Z,91.40
2023-03-09T06:22:55.029Z,91.57
2023-03-09T06:24:56.564Z,92.57
2023-03-09T06:26:58.852Z,93.00
2023-03-09T06:29:00.300Z,97.18
2023-03-09T06:31:05.977Z,101.95
2023-03-09T06:33:07.564Z,91.15
2023-03-09T06:35:09.122Z,103.70
2023-03-09T06:37:10.583Z,88.50
2023-03-09T06:39:14.723Z,87.50
2023-03-09T06:41:16.938Z,90.45
2023-03-09T06:43:18.429Z,91.80
2023-03-09T06:47:26.946Z,97.18
2023-03-09T06:49:28.409Z,93.53
2023-03-09T06:51:33.055Z,93.47
2023-03-09T06:53:34.558Z,90.18
2023-03-09T06:55:37.100Z,87.07
2023-03-09T06:57:38.772Z,136.32
2023-03-09T06:59:40.280Z,94.43
2023-03-09T07:01:44.389Z,91.95
2023-03-09T07:03:46.940Z,101.82
2023-03-09T07:05:51.513Z,89.53
2023-03-09T07:07:55.964Z,92.22
2023-03-09T07:10:00.290Z,103.30
2023-03-09T07:12:05.133Z,79.90
2023-03-09T07:14:09.441Z,83.30
2023-03-09T07:16:31.453Z,85.88
2023-03-09T07:18:32.992Z,77.10
2023-03-09T07:20:34.673Z,88.40
2023-03-09T07:22:36.200Z,83.63
2023-03-09T07:24:38.222Z,75.63
2023-03-09T07:26:42.341Z,97.00
2023-03-09T07:28:43.778Z,111.95
2023-03-09T07:30:45.292Z,100.13
2023-03-09T07:32:46.810Z,94.65
2023-03-09T07:34:51.168Z,87.68
2023-03-09T07:36:55.481Z,106.82
2023-03-09T07:39:02.911Z,96.30
2023-03-09T07:41:04.548Z,100.78
2023-03-09T07:43:24.742Z,107.30
2023-03-09T07:45:29.312Z,103.20
2023-03-09T07:47:32.599Z,114.82
2023-03-09T07:49:34.177Z,118.77
2023-03-09T07:51:36.942Z,135.98
2023-03-09T07:53:40.256Z,100.28
2023-03-09T07:55:44.523Z,92.75
2023-03-09T07:57:49.117Z,91.07
2023-03-09T07:59:54.259Z,104.90
2023-03-09T08:01:55.698Z,85.93
2023-03-09T08:03:57.269Z,87.35
2023-03-09T08:06:01.709Z,78.13
2023-03-09T08:08:22.334Z,103.32
2023-03-09T08:10:24.752Z,101.72
2023-03-09T08:12:28.952Z,82.72
2023-03-09T08:14:30.519Z,78.95
2023-03-09T08:16:32.093Z,88.72
2023-03-09T08:18:33.605Z,70.63
2023-03-09T08:20:35.039Z,84.68
2023-03-09T08:22:39.664Z,75.00
2023-03-09T08:24:43.913Z,73.60
2023-03-09T08:26:45.463Z,80.85
2023-03-09T08:28:47.186Z,71.22
2023-03-09T08:30:51.715Z,73.30
2023-03-09T08:32:56.385Z,80.97
2023-03-09T08:35:02.965Z,75.45
2023-03-09T08:37:11.010Z,67.18
2023-03-09T08:39:20.781Z,71.95
2023-03-09T08:41:32.690Z,69.75
2023-03-09T08:43:46.085Z,65.87
2023-03-09T08:46:03.016Z,72.22
2023-03-09T08:48:17.445Z,76.13
2023-03-09T08:50:33.445Z,80.53
2023-03-09T08:52:45.667Z,83.03
2023-03-09T08:55:00.010Z,71.97
2023-03-09T08:57:16.915Z,78.05
2023-03-09T08:59:29.180Z,86.82
2023-03-09T09:01:55.732Z,76.15
2023-03-09T09:04:14.482Z,83.68
2023-03-09T09:06:24.866Z,92.68
2023-03-09T09:08:32.997Z,75.85
2023-03-09T09:10:51.919Z,70.45
2023-03-09T09:12:58.916Z,75.47
2023-03-09T09:15:00.601Z,80.15
2023-03-09T09:17:02.144Z,99.20
2023-03-09T09:19:09.749Z,94.35
2023-03-09T09:21:14.060Z,89.78
2023-03-09T09:23:19.131Z,80.13
2023-03-09T09:25:38.774Z,89.82
2023-03-09T09:27:58.615Z,92.07
2023-03-09T09:30:00.128Z,80.72
2023-03-09T09:32:01.887Z,84.75
2023-03-09T09:34:03.354Z,91.95
2023-03-09T09:36:25.926Z,75.72
2023-03-09T09:38:28.331Z,70.03
2023-03-09T09:40:30.100Z,96.90
2023-03-09T09:42:38.967Z,77.75
2023-03-09T09:44:45.315Z,83.97
2023-03-09T09:46:47.349Z,80.70
2023-03-09T09:48:51.840Z,96.43
2023-03-09T09:51:31.273Z,83.32
2023-03-09T09:53:38.548Z,80.60
2023-03-09T09:55:43.383Z,90.32
2023-03-09T09:57:46.264Z,83.45
2023-03-09T10:00:06.108Z,81.80
2023-03-09T10:02:41.101Z,79.82
2023-03-09T10:04:46.641Z,103.00
2023-03-09T10:06:49.519Z,112.88
2023-03-09T10:08:59.636Z,107.13
2023-03-09T10:11:10.201Z,97.45
2023-03-09T10:13:15.721Z,92.28
2023-03-09T10:15:30.287Z,85.55
2023-03-09T10:17:44.177Z,106.22
2023-03-09T10:20:33.819Z,99.85
2023-03-09T10:22:35.581Z,99.38
2023-03-09T10:24:41.794Z,91.95
2023-03-09T10:26:52.387Z,106.65
2023-03-09T10:28:58.412Z,92.97
2023-03-09T10:31:19.397Z,91.28
2023-03-09T10:33:27.182Z,87.88
2023-03-09T10:35:31.410Z,97.43
2023-03-09T10:37:35.051Z,95.20
2023-03-09T10:39:42.683Z,89.75
2023-03-09T10:41:44.315Z,102.22
2023-03-09T10:43:46.004Z,92.55
2023-03-09T10:45:47.594Z,85.30
2023-03-09T10:50:24.233Z,72.93
2023-03-09T10:52:29.676Z,69.35
2023-03-09T10:54:36.077Z,88.18
2023-03-09T10:56:56.222Z,84.32
2023-03-09T10:59:07.683Z,103.00
2023-03-09T11:01:27.892Z,93.07
2023-03-09T11:03:34.070Z,103.53
2023-03-09T11:05:36.394Z,71.75
2023-03-09T11:07:40.682Z,88.32
2023-03-09T11:09:42.091Z,87.03
2023-03-09T11:11:47.805Z,89.00
2023-03-09T11:13:49.365Z,85.70
2023-03-09T11:16:04.782Z,67.50
2023-03-09T11:18:29.123Z,82.22
2023-03-09T11:20:39.830Z,69.45
2023-03-09T11:22:45.940Z,84.78
2023-03-09T11:24:50.639Z,94.57
2023-03-09T11:26:58.615Z,91.93
2023-03-09T11:29:03.120Z,81.47
2023-03-09T11:31:11.306Z,82.50
2023-03-09T11:33:17.827Z,94.15
2023-03-09T11:35:23.708Z,90.85
2023-03-09T11:37:53.340Z,87.97
2023-03-09T11:40:07.704Z,93.57
2023-03-09T11:42:19.071Z,104.93
2023-03-09T11:44:43.374Z,88.85
2023-03-09T11:46:48.190Z,77.93
2023-03-09T11:49:17.243Z,90.85
2023-03-09T11:51:22.652Z,65.13
2023-03-09T11:53:28.796Z,80.45
2023-03-09T11:55:51.475Z,84.38
2023-03-09T11:57:59.935Z,80.82
2023-03-09T12:00:07.904Z,63.72
2023-03-09T12:02:20.159Z,68.07
2023-03-09T12:04:25.684Z,64.00
2023-03-09T12:06:37.124Z,71.80
2023-03-09T12:08:46.680Z,66.03
2023-03-09T12:10:59.027Z,63.17
2023-03-09T12:13:11.351Z,51.88
2023-03-09T12:15:41.989Z,43.83
2023-03-09T12:17:54.660Z,50.53
2023-03-09T12:19:59.670Z,43.50
2023-03-09T12:22:06.630Z,46.00
2023-03-09T12:26:15.549Z,44.55
2023-03-09T12:28:21.937Z,48.72
2023-03-09T12:30:24.833Z,47.25
2023-03-09T12:32:26.410Z,44.88
2023-03-09T12:34:39.974Z,41.97
2023-03-09T12:36:44.262Z,62.03
2023-03-09T12:40:50.929Z,48.90
2023-03-09T12:42:56.456Z,40.05
2023-03-09T12:44:58.964Z,43.45
2023-03-09T12:47:03.800Z,54.20
2023-03-09T12:49:12.254Z,43.92
2023-03-09T12:51:21.109Z,48.80
2023-03-09T12:53:26.892Z,53.78
2023-03-09T12:55:34.980Z,70.28
2023-03-09T12:58:15.086Z,45.42
2023-03-09T13:00:19.682Z,59.33
2023-03-09T13:02:32.874Z,48.47
2023-03-09T13:04:34.472Z,56.20
2023-03-09T13:06:57.540Z,50.03
2023-03-09T13:09:01.329Z,56.53
2023-03-09T13:11:21.307Z,49.15
2023-03-09T13:13:28.098Z,53.78
2023-03-09T13:15:29.553Z,58.30
2023-03-09T13:17:31.047Z,51.72
2023-03-09T13:21:40.672Z,56.95
2023-03-09T13:23:44.131Z,53.17
2023-03-09T13:25:49.542Z,60.88
2023-03-09T13:27:53.191Z,49.83
2023-03-09T13:30:03.845Z,46.50
2023-03-09T13:32:18.297Z,51.65
2023-03-09T13:34:31.984Z,55.97
2023-03-09T13:36:34.109Z,40.20
2023-03-09T13:38:38.021Z,39.35
2023-03-09T13:40:48.334Z,43.58
2023-03-09T13:42:53.530Z,34.65
2023-03-09T13:44:55.908Z,36.08
2023-03-09T13:46:58.270Z,53.67
2023-03-09T13:49:08.070Z,46.65
2023-03-09T13:51:26.023Z,27.63
2023-03-09T13:53:33.089Z,42.40
2023-03-09T13:55:37.554Z,35.70
2023-03-09T13:57:41.891Z,34.75
2023-03-09T13:59:45.960Z,36.97
2023-03-09T14:01:47.508Z,45.50
2023-03-09T14:03:50.034Z,43.10
2023-03-09T14:08:19.671Z,31.67
2023-03-09T14:10:40.445Z,30.45
2023-03-09T14:12:45.596Z,39.65
2023-03-09T14:14:47.189Z,40.92
2023-03-09T14:17:15.985Z,36.05
2023-03-09T14:19:35.993Z,35.30
2023-03-09T14:21:37.503Z,28.35
2023-03-09T14:25:43.759Z,25.55
2023-03-09T14:27:48.081Z,17.90
2023-03-09T14:29:53.545Z,38.70
2023-03-09T14:32:16.581Z,24.40
2023-03-09T14:34:20.798Z,29.67
2023-03-09T14:36:22.367Z,28.10
2023-03-09T14:38:24.140Z,22.08
2023-03-09T14:40:29.318Z,30.20
2023-03-09T14:42:34.906Z,39.05
2023-03-09T14:44:44.839Z,35.55
2023-03-09T14:46:57.242Z,24.58
2023-03-09T14:49:11.843Z,40.47
2023-03-09T14:51:41.890Z,32.25
2023-03-09T14:54:06.944Z,36.60
2023-03-09T14:56:15.984Z,38.90
2023-03-09T14:58:18.895Z,37.83
2023-03-09T15:00:27.726Z,40.00
2023-03-09T15:02:38.643Z,55.08
2023-03-09T15:04:54.438Z,49.88
2023-03-09T15:07:23.069Z,47.33
2023-03-09T15:09:32.839Z,46.83
2023-03-09T15:11:40.192Z,41.50
2023-03-09T15:13:50.113Z,52.42
2023-03-09T15:15:58.005Z,38.08
2023-03-09T15:18:02.797Z,33.70
2023-03-09T15:20:14.092Z,50.13
2023-03-09T15:22:20.951Z,48.58
2023-03-09T15:24:25.151Z,47.38
2023-03-09T15:26:31.639Z,42.67
2023-03-09T15:28:36.103Z,40.22
2023-03-09T15:30:40.209Z,36.78
2023-03-09T15:33:00.299Z,31.40
2023-03-09T15:35:20.965Z,34.17
2023-03-09T15:37:28.261Z,38.05
2023-03-09T15:39:29.918Z,37.92
2023-03-09T15:41:31.418Z,41.20
2023-03-09T15:43:35.947Z,45.83
2023-03-09T15:45:42.115Z,47.03
2023-03-09T15:47:46.767Z,48.60
2023-03-09T15:49:48.462Z,64.97
2023-03-09T15:51:53.216Z,43.40
2023-03-09T15:53:54.630Z,49.05
2023-03-09T15:58:03.503Z,53.45
2023-03-09T16:00:06.532Z,51.88
2023-03-09T16:02:27.176Z,52.08
2023-03-09T16:04:31.502Z,59.85
2023-03-09T16:06:35.731Z,43.75
2023-03-09T16:08:56.181Z,47.20
2023-03-09T16:10:57.811Z,49.38
2023-03-09T16:12:59.376Z,48.40
2023-03-09T16:15:04.508Z,48.85
2023-03-09T16:17:06.079Z,60.53
2023-03-09T16:19:07.678Z,43.42
2023-03-09T16:21:12.083Z,43.15
2023-03-09T16:23:16.590Z,37.67
2023-03-09T16:27:24.839Z,46.55
2023-03-09T16:29:44.976Z,39.05
2023-03-09T16:31:49.025Z,28.83
2023-03-09T16:33:54.502Z,27.13
2023-03-09T16:35:56.920Z,44.67
2023-03-09T16:38:01.352Z,31.80
2023-03-09T16:40:05.883Z,36.58
2023-03-09T16:42:10.141Z,31.85
2023-03-09T16:44:23.598Z,33.40
2023-03-09T16:46:26.030Z,34.90
2023-03-09T16:48:30.180Z,25.73
2023-03-09T16:50:34.381Z,27.50
2023-03-09T16:52:54.457Z,40.42
2023-03-09T16:55:03.323Z,36.08
2023-03-09T16:57:05.242Z,31.35
2023-03-09T16:59:09.742Z,49.67
2023-03-09T17:01:15.488Z,35.25
2023-03-09T17:03:20.195Z,32.08
2023-03-09T17:05:24.546Z,34.05
2023-03-09T17:07:26.101Z,36.55
2023-03-09T17:11:32.054Z,28.40
2023-03-09T17:13:33.662Z,31.55
2023-03-09T17:15:41.408Z,36.97
2023-03-09T17:17:45.638Z,32.15
2023-03-09T17:19:53.119Z,34.25
2023-03-09T17:21:57.610Z,39.38
2023-03-09T17:23:59.196Z,23.73
2023-03-09T17:26:01.610Z,35.72
2023-03-09T17:28:03.179Z,34.70
2023-03-09T17:30:08.098Z,29.63
2023-03-09T17:32:28.323Z,30.73
2023-03-09T17:34:31.098Z,23.33
2023-03-09T17:36:35.135Z,24.77
2023-03-09T17:38:36.799Z,20.00
2023-03-09T17:40:45.181Z,19.67
2023-03-09T17:42:49.726Z,17.27
2023-03-09T17:44:51.467Z,22.25
2023-03-09T17:46:53.137Z,24.10
2023-03-09T17:48:57.359Z,30.67
2023-03-09T17:51:07.594Z,25.02
2023-03-09T17:53:09.937Z,30.05
2023-03-09T17:55:13.689Z,15.68
2023-03-09T17:57:19.760Z,21.13
2023-03-09T17:59:24.828Z,28.65
2023-03-09T18:01:35.007Z,29.80
2023-03-09T18:03:39.896Z,32.35
2023-03-09T18:05:46.171Z,26.67
2023-03-09T18:07:52.427Z,24.95
2023-03-09T18:09:55.458Z,35.47
2023-03-09T18:12:01.840Z,30.50
2023-03-09T18:14:11.155Z,48.28
2023-03-09T18:16:16.622Z,44.58
2023-03-09T18:18:22.683Z,42.35
2023-03-09T18:20:26.399Z,53.28
2023-03-09T18:22:31.957Z,42.08
2023-03-09T18:24:36.644Z,52.13
2023-03-09T18:26:38.560Z,51.83
2023-03-09T18:28:40.061Z,42.53
2023-03-09T18:32:48.741Z,41.35
2023-03-09T18:34:50.293Z,47.05
2023-03-09T18:36:55.119Z,55.08
2023-03-09T18:38:57.027Z,62.25
2023-03-09T18:40:58.638Z,56.35
2023-03-09T18:43:00.233Z,48.15
2023-03-09T18:45:01.763Z,59.75
2023-03-09T18:47:05.226Z,54.47
2023-03-09T18:49:06.941Z,52.85
2023-03-09T18:51:13.144Z,58.97
2023-03-09T18:53:14.602Z,58.63
2023-03-09T18:55:17.150Z,72.55
2023-03-09T18:57:19.493Z,77.07
2023-03-09T18:59:24.529Z,61.83
2023-03-09T19:01:26.195Z,76.78
2023-03-09T19:03:30.509Z,83.88
2023-03-09T19:07:39.001Z,82.18
2023-03-09T19:09:43.048Z,60.53
2023-03-09T19:11:47.359Z,65.75
2023-03-09T19:13:51.708Z,74.10
2023-03-09T19:16:01.465Z,84.82
2023-03-09T19:18:02.991Z,81.18
2023-03-09T19:20:07.545Z,84.93
2023-03-09T19:22:11.528Z,85.15
2023-03-09T19:24:13.425Z,70.88
2023-03-09T19:26:15.083Z,83.18
2023-03-09T19:28:19.201Z,102.07
2023-03-09T19:30:20.684Z,88.40
2023-03-09T19:32:24.924Z,91.40
2023-03-09T19:34:26.525Z,88.53
2023-03-09T19:36:29.429Z,89.30
2023-03-09T19:38:37.807Z,91.05
2023-03-09T19:40:39.336Z,87.32
2023-03-09T19:42:44.229Z,93.15
2023-03-09T19:44:48.206Z,93.47
2023-03-09T19:48:54.040Z,93.88
2023-03-09T19:51:08.294Z,99.65
2023-03-09T19:53:12.514Z,93.50
2023-03-09T19:55:14.005Z,88.55
2023-03-09T19:57:18.442Z,90.65
2023-03-09T19:59:22.824Z,72.97
2023-03-09T20:01:28.477Z,86.82
2023-03-09T20:03:30.113Z,87.13
2023-03-09T20:05:34.682Z,74.80
2023-03-09T20:09:43.601Z,90.70
2023-03-09T20:11:47.960Z,64.45
2023-03-09T20:13:52.307Z,81.35
2023-03-09T20:16:00.035Z,73.25
2023-03-09T20:18:01.962Z,85.90
2023-03-09T20:20:03.459Z,72.60
2023-03-09T20:22:08.782Z,67.47
2023-03-09T20:24:17.233Z,65.97
2023-03-09T20:26:23.166Z,76.82
2023-03-09T20:28:27.224Z,60.90
2023-03-09T20:30:29.514Z,58.10
2023-03-09T20:32:33.948Z,58.40
2023-03-09T20:34:35.405Z,71.22
2023-03-09T20:36:37.058Z,68.85
2023-03-09T20:38:41.176Z,65.15
2023-03-09T20:40:43.557Z,55.97
2023-03-09T20:42:45.113Z,58.67
2023-03-09T20:44:49.910Z,46.75
2023-03-09T20:46:51.586Z,64.20
2023-03-09T20:48:53.951Z,60.08
2023-03-09T20:50:55.478Z,52.75
2023-03-09T20:52:57.032Z,49.03
2023-03-09T20:55:02.104Z,54.35
2023-03-09T20:57:47.406Z,45.30
2023-03-09T21:00:16.369Z,53.42
2023-03-09T21:02:25.207Z,42.03
2023-03-09T21:04:48.543Z,44.25
2023-03-09T21:07:00.625Z,38.60
2023-03-09T21:09:10.652Z,40.28
2023-03-09T21:11:26.010Z,39.17
2023-03-09T21:13:30.940Z,42.15
2023-03-09T21:15:37.713Z,47.67
2023-03-09T21:17:47.279Z,39.47
2023-03-09T21:19:59.910Z,46.35
2023-03-09T21:22:05.953Z,38.67
2023-03-09T21:24:27.229Z,32.22
2023-03-09T21:26:36.221Z,31.60
2023-03-09T21:28:46.151Z,34.88
2023-03-09T21:30:58.842Z,30.90
2023-03-09T21:33:06.572Z,31.88
2023-03-09T21:35:10.929Z,28.02
2023-03-09T21:37:12.691Z,35.80
2023-03-09T21:39:17.044Z,27.75
2023-03-09T21:41:18.743Z,39.13
2023-03-09T21:43:23.310Z,42.38
2023-03-09T21:45:24.758Z,34.67
2023-03-09T21:47:26.175Z,52.97
2023-03-09T21:49:30.511Z,38.22
2023-03-09T21:51:32.002Z,42.20
2023-03-09T21:53:33.802Z,27.13
2023-03-09T21:55:53.869Z,28.52
2023-03-09T21:57:57.124Z,24.35
2023-03-09T22:00:02.072Z,32.60
2023-03-09T22:02:04.054Z,31.60
2023-03-09T22:04:05.792Z,36.13
2023-03-09T22:06:07.325Z,26.75
2023-03-09T22:08:10.144Z,38.45
2023-03-09T22:10:30.427Z,39.45
2023-03-09T22:12:33.566Z,30.60
2023-03-09T22:14:35.126Z,47.53
2023-03-09T22:16:37.077Z,57.47
2023-03-09T22:18:38.593Z,51.17
2023-03-09T22:21:02.787Z,32.72
2023-03-09T22:23:07.001Z,44.33
2023-03-09T22:25:11.971Z,44.35
2023-03-09T22:27:13.597Z,44.72
2023-03-09T22:29:17.759Z,51.13
2023-03-09T22:31:19.281Z,48.33
2023-03-09T22:33:34.328Z,36.42
2023-03-09T22:35:36.884Z,28.55
2023-03-09T22:39:45.567Z,30.63
2023-03-09T22:41:50.019Z,25.25
2023-03-09T22:43:52.082Z,30.50
2023-03-09T22:46:13.436Z,29.33
2023-03-09T22:48:14.911Z,33.40
2023-03-09T22:50:16.514Z,18.33
2023-03-09T22:52:18.049Z,29.23
2023-03-09T22:54:37.933Z,19.85
2023-03-09T22:56:43.506Z,26.80
2023-03-09T22:58:45.554Z,32.30
2023-03-09T23:01:13.833Z,25.58
2023-03-09T23:03:18.315Z,31.13
2023-03-09T23:05:19.846Z,40.30
2023-03-09T23:07:39.922Z,45.70
2023-03-09T23:09:46.944Z,39.10
2023-03-09T23:11:48.681Z,49.50
2023-03-09T23:13:50.281Z,59.38
2023-03-09T23:16:07.398Z,44.55
2023-03-09T23:18:09.270Z,53.95
2023-03-09T23:20:16.201Z,48.00
2023-03-09T23:22:36.834Z,47.83
2023-03-09T23:24:56.709Z,42.20
2023-03-09T23:27:00.824Z,54.88
2023-03-09T23:31:11.188Z,43.65
2023-03-09T23:33:12.670Z,41.53
2023-03-09T23:35:14.331Z,46.85
2023-03-09T23:37:15.912Z,57.38
2023-03-09T23:39:17.391Z,40.60
2023-03-09T23:41:19.452Z,44.78
2023-03-09T23:43:23.929Z,44.55
2023-03-09T23:45:25.405Z,45.22
2023-03-09T23:47:29.790Z,34.90
2023-03-09T23:49:34.116Z,48.00
2023-03-09T23:51:38.651Z,44.05
2023-03-09T23:53:40.627Z,45.58
2023-03-09T23:55:44.817Z,51.30
2023-03-09T23:57:49.142Z,47.78
2023-03-09T23:59:54.031Z,45.10
